Time;durP1;ratioP1;P1;durP2;ratioP2;P2;SDS_P1;SDS_P2;PMS_P1;PMS_P2;Temp;Humidity;BMP_temperature;BMP_pressure;BME280_temperature;BME280_humidity;BME280_pressure;Samples;Min_cycle;Max_cycle;Signal;HPM_P1;HPM_P2
2022/05/09 00:01:14;;;;;;;;;;;8.60;99.30;;;;;;5081417;27;37564;-56
2022/05/09 00:03:42;;;;;;;;;;;8.50;99.30;;;;;;5079058;27;37848;-56
2022/05/09 00:06:09;;;;;;;;;;;8.40;99.20;;;;;;5080652;27;35098;-57
2022/05/09 00:08:39;;;;;;;;;;;8.50;99.10;;;;;;5082209;27;39198;-57
2022/05/09 00:11:07;;;;;;;;;;;8.40;99.10;;;;;;5081009;27;37797;-57
2022/05/09 00:13:34;;;;;;;;;;;8.40;99.20;;;;;;5081610;27;37754;-57
2022/05/09 00:16:01;;;;;;;;;;;8.40;99.40;;;;;;5079141;27;36542;-57
2022/05/09 00:18:28;;;;;;;;;;;8.40;99.80;;;;;;5082448;27;36411;-57
2022/05/09 00:20:55;;;;;;;;;;;8.40;99.70;;;;;;5080600;27;39040;-57
2022/05/09 00:23:22;;;;;;;;;;;8.40;99.80;;;;;;5078680;27;35972;-57
2022/05/09 00:25:51;;;;;;;;;;;8.30;99.60;;;;;;5080959;27;36573;-57
2022/05/09 00:28:20;;;;;;;;;;;8.30;99.60;;;;;;5080273;27;37806;-57
2022/05/09 00:30:48;;;;;;;;;;;8.30;99.60;;;;;;5078893;27;36350;-58
2022/05/09 00:33:15;;;;;;;;;;;8.30;99.50;;;;;;5080138;27;37507;-57
2022/05/09 00:35:44;;;;;;;;;;;8.30;99.70;;;;;;5080524;27;35053;-57
2022/05/09 00:38:11;;;;;;;;;;;8.30;99.90;;;;;;5079836;27;38024;-57
2022/05/09 00:40:39;;;;;;;;;;;8.30;99.90;;;;;;5080342;27;39254;-58
2022/05/09 00:43:27;;;;;;;;;;;8.30;99.90;;;;;;5078313;27;37467;-58
2022/05/09 00:45:54;;;;;;;;;;;8.30;99.90;;;;;;5077421;27;36135;-57
2022/05/09 00:48:24;;;;;;;;;;;8.20;99.80;;;;;;5081687;27;37147;-57
2022/05/09 00:50:51;;;;;;;;;;;8.20;99.70;;;;;;5079989;27;37782;-56
2022/05/09 00:53:19;;;;;;;;;;;8.20;99.70;;;;;;5079521;27;36727;-56
2022/05/09 00:55:48;;;;;;;;;;;8.20;99.70;;;;;;5077394;27;36175;-56
2022/05/09 00:58:21;;;;;;;;;;;8.10;99.50;;;;;;5079248;27;37786;-56
2022/05/09 01:00:50;;;;;;;;;;;8.10;99.10;;;;;;5080220;27;38534;-56
2022/05/09 01:03:18;;;;;;;;;;;8.10;99.10;;;;;;5079032;27;37910;-56
2022/05/09 01:05:50;;;;;;;;;;;8.00;99.00;;;;;;5078681;27;36983;-56
2022/05/09 01:08:20;;;;;;;;;;;8.00;99.10;;;;;;5078549;27;38376;-56
2022/05/09 01:10:48;;;;;;;;;;;7.90;99.10;;;;;;5078830;27;38912;-56
2022/05/09 01:13:19;;;;;;;;;;;7.90;99.30;;;;;;5079573;27;37443;-55
2022/05/09 01:15:48;;;;;;;;;;;7.80;99.40;;;;;;5077744;27;36936;-56
2022/05/09 01:18:18;;;;;;;;;;;7.80;99.30;;;;;;5079326;27;38028;-55
2022/05/09 01:20:46;;;;;;;;;;;7.80;99.10;;;;;;5078081;27;39109;-54
2022/05/09 01:23:15;;;;;;;;;;;7.80;99.00;;;;;;5078876;27;36957;-56
2022/05/09 01:25:43;;;;;;;;;;;7.70;99.20;;;;;;5079288;27;36930;-57
2022/05/09 01:28:11;;;;;;;;;;;7.70;99.00;;;;;;5078138;27;36432;-57
2022/05/09 01:30:42;;;;;;;;;;;7.60;98.80;;;;;;5080449;27;39398;-57
2022/05/09 01:33:12;;;;;;;;;;;7.60;98.80;;;;;;5082422;27;37442;-57
2022/05/09 01:35:43;;;;;;;;;;;7.60;98.70;;;;;;5078920;27;36410;-56
2022/05/09 01:38:14;;;;;;;;;;;7.50;98.70;;;;;;5079194;27;36443;-55
2022/05/09 01:40:42;;;;;;;;;;;7.50;98.90;;;;;;5078870;27;37391;-55
2022/05/09 01:43:13;;;;;;;;;;;7.50;99.00;;;;;;5080437;27;36934;-57
2022/05/09 01:45:40;;;;;;;;;;;7.50;99.00;;;;;;5078348;27;37243;-57
2022/05/09 01:50:51;;;;;;;;;;;7.50;99.30;;;;;;5078438;27;38817;-57
2022/05/09 01:53:18;;;;;;;;;;;7.50;99.30;;;;;;5080158;27;36508;-57
2022/05/09 01:55:47;;;;;;;;;;;7.50;99.60;;;;;;5080583;27;38403;-57
2022/05/09 01:58:14;;;;;;;;;;;7.40;99.40;;;;;;5080426;27;38161;-57
2022/05/09 02:00:43;;;;;;;;;;;7.40;99.30;;;;;;5079304;27;39266;-57
2022/05/09 02:03:10;;;;;;;;;;;7.30;99.10;;;;;;5079930;27;34736;-57
2022/05/09 02:05:38;;;;;;;;;;;7.30;99.10;;;;;;5080245;27;36973;-57
2022/05/09 02:08:05;;;;;;;;;;;7.30;99.30;;;;;;5078688;27;38793;-58
2022/05/09 02:10:32;;;;;;;;;;;7.30;99.50;;;;;;5078570;27;39437;-57
2022/05/09 02:13:01;;;;;;;;;;;7.30;99.40;;;;;;5080103;27;39058;-57
2022/05/09 02:15:31;;;;;;;;;;;7.20;99.30;;;;;;5080246;27;37184;-57
2022/05/09 02:18:00;;;;;;;;;;;7.20;99.60;;;;;;5080637;27;31791;-57
2022/05/09 02:20:27;;;;;;;;;;;7.20;99.80;;;;;;5077355;27;36826;-57
2022/05/09 02:22:55;;;;;;;;;;;7.10;99.10;;;;;;5079422;27;37091;-57
2022/05/09 02:25:29;;;;;;;;;;;7.10;99.40;;;;;;5080053;27;38307;-57
2022/05/09 02:27:56;;;;;;;;;;;7.00;99.40;;;;;;5078600;27;38800;-57
2022/05/09 02:30:24;;;;;;;;;;;7.00;99.00;;;;;;5080129;27;37992;-57
2022/05/09 02:32:52;;;;;;;;;;;7.00;98.70;;;;;;5078825;27;36459;-57
2022/05/09 02:35:20;;;;;;;;;;;6.90;98.90;;;;;;5078462;27;37014;-57
2022/05/09 02:37:48;;;;;;;;;;;6.80;99.10;;;;;;5078088;27;38367;-57
2022/05/09 02:40:15;;;;;;;;;;;6.80;99.20;;;;;;5080270;27;36689;-57
2022/05/09 02:42:42;;;;;;;;;;;6.80;99.30;;;;;;5079676;27;37432;-57
2022/05/09 02:45:11;;;;;;;;;;;6.70;99.40;;;;;;5079695;27;37667;-57
2022/05/09 02:47:40;;;;;;;;;;;6.70;99.50;;;;;;5077646;27;39512;-57
2022/05/09 02:50:09;;;;;;;;;;;6.70;99.30;;;;;;5079465;27;38070;-57
2022/05/09 02:52:37;;;;;;;;;;;6.70;99.30;;;;;;5077981;27;36577;-57
2022/05/09 02:55:05;;;;;;;;;;;6.70;99.40;;;;;;5080752;27;35371;-57
2022/05/09 02:57:32;;;;;;;;;;;6.70;99.50;;;;;;5080212;27;39453;-57
2022/05/09 02:59:59;;;;;;;;;;;6.70;99.90;;;;;;5079079;27;36792;-57
2022/05/09 03:02:26;;;;;;;;;;;6.80;99.90;;;;;;5080002;27;36978;-57
2022/05/09 03:04:54;;;;;;;;;;;6.80;99.90;;;;;;5078008;27;36428;-57
2022/05/09 03:07:21;;;;;;;;;;;6.80;99.90;;;;;;5078373;27;38671;-57
2022/05/09 03:09:50;;;;;;;;;;;6.80;99.90;;;;;;5077627;27;38802;-57
2022/05/09 03:12:19;;;;;;;;;;;6.80;99.90;;;;;;5078482;27;37871;-57
2022/05/09 03:14:47;;;;;;;;;;;6.80;99.90;;;;;;5077335;27;36181;-57
2022/05/09 03:17:14;;;;;;;;;;;6.80;99.90;;;;;;5077133;27;38362;-57
2022/05/09 03:19:41;;;;;;;;;;;6.70;99.90;;;;;;5078818;27;39267;-58
2022/05/09 03:22:10;;;;;;;;;;;6.70;99.90;;;;;;5076928;27;38593;-57
2022/05/09 03:24:37;;;;;;;;;;;6.80;99.90;;;;;;5078515;27;38620;-57
2022/05/09 03:27:06;;;;;;;;;;;6.90;99.90;;;;;;5079253;27;36586;-57
2022/05/09 03:29:33;;;;;;;;;;;7.00;99.90;;;;;;5079780;27;38959;-57
2022/05/09 03:32:00;;;;;;;;;;;7.00;99.90;;;;;;5081081;27;37327;-57
2022/05/09 03:34:28;;;;;;;;;;;7.00;99.90;;;;;;5082300;27;38683;-57
2022/05/09 03:36:55;;;;;;;;;;;7.00;99.90;;;;;;5081010;27;38475;-57
2022/05/09 03:39:23;;;;;;;;;;;6.90;99.90;;;;;;5080501;27;38832;-57
2022/05/09 03:41:51;;;;;;;;;;;6.90;99.90;;;;;;5080545;27;36838;-57
2022/05/09 03:44:18;;;;;;;;;;;6.90;99.90;;;;;;5080022;27;36579;-57
2022/05/09 03:46:45;;;;;;;;;;;6.90;99.90;;;;;;5082199;27;40715;-57
2022/05/09 03:49:12;;;;;;;;;;;6.90;99.90;;;;;;5082153;27;38219;-57
2022/05/09 03:51:39;;;;;;;;;;;6.80;99.90;;;;;;5081906;27;36251;-57
2022/05/09 03:54:06;;;;;;;;;;;6.80;99.90;;;;;;5077388;27;37189;-57
2022/05/09 03:56:35;;;;;;;;;;;6.90;99.90;;;;;;5076697;27;36570;-57
2022/05/09 03:59:02;;;;;;;;;;;6.90;99.90;;;;;;5081478;27;38254;-57
2022/05/09 04:01:29;;;;;;;;;;;6.90;99.90;;;;;;5080763;27;36890;-57
2022/05/09 04:03:56;;;;;;;;;;;6.90;99.90;;;;;;5079871;27;34900;-58
2022/05/09 04:06:23;;;;;;;;;;;6.90;99.90;;;;;;5080134;27;38621;-57
2022/05/09 04:08:50;;;;;;;;;;;6.80;99.70;;;;;;5078432;27;39692;-57
2022/05/09 04:11:18;;;;;;;;;;;6.80;99.50;;;;;;5080538;27;37847;-57
2022/05/09 04:13:46;;;;;;;;;;;6.80;99.60;;;;;;5080930;27;36400;-56
2022/05/09 04:18:59;;;;;;;;;;;6.80;99.50;;;;;;5081269;27;40024;-57
2022/05/09 04:21:26;;;;;;;;;;;6.80;99.40;;;;;;5079494;27;38312;-57
2022/05/09 04:23:56;;;;;;;;;;;6.70;99.50;;;;;;5079822;27;36917;-57
2022/05/09 04:26:23;;;;;;;;;;;6.70;99.60;;;;;;5080610;27;38020;-57
2022/05/09 04:28:51;;;;;;;;;;;6.80;99.80;;;;;;5081447;27;38496;-57
2022/05/09 04:31:19;;;;;;;;;;;6.80;99.70;;;;;;5082724;27;35847;-56
2022/05/09 04:33:47;;;;;;;;;;;6.90;99.90;;;;;;5081280;27;36396;-57
2022/05/09 04:36:14;;;;;;;;;;;6.90;99.90;;;;;;5082049;27;38026;-57
2022/05/09 04:38:43;;;;;;;;;;;7.00;99.90;;;;;;5081559;27;38093;-57
2022/05/09 04:41:10;;;;;;;;;;;7.10;99.90;;;;;;5081791;27;38236;-57
2022/05/09 04:43:37;;;;;;;;;;;7.20;99.90;;;;;;5081258;27;35854;-57
2022/05/09 04:46:06;;;;;;;;;;;7.30;99.90;;;;;;5081376;27;38887;-57
2022/05/09 04:48:34;;;;;;;;;;;7.30;99.90;;;;;;5081517;27;37728;-57
2022/05/09 04:51:01;;;;;;;;;;;7.40;99.90;;;;;;5082112;27;38415;-57
2022/05/09 04:53:28;;;;;;;;;;;7.50;99.40;;;;;;5075910;27;36455;-57
2022/05/09 04:55:56;;;;;;;;;;;7.30;99.00;;;;;;5080267;27;38396;-57
2022/05/09 04:58:23;;;;;;;;;;;7.40;99.20;;;;;;5081114;27;36692;-57
2022/05/09 05:00:50;;;;;;;;;;;7.40;99.70;;;;;;5080638;27;38781;-57
2022/05/09 05:03:21;;;;;;;;;;;7.50;99.90;;;;;;5080935;27;37021;-57
2022/05/09 05:05:48;;;;;;;;;;;7.70;99.90;;;;;;5079313;27;39451;-57
2022/05/09 05:08:16;;;;;;;;;;;7.80;99.90;;;;;;5080116;27;39102;-57
2022/05/09 05:10:43;;;;;;;;;;;8.00;99.90;;;;;;5080470;27;38654;-57
2022/05/09 05:13:12;;;;;;;;;;;8.30;99.90;;;;;;5078875;27;37084;-57
2022/05/09 05:15:39;;;;;;;;;;;8.50;99.90;;;;;;5079173;27;38732;-57
2022/05/09 05:18:06;;;;;;;;;;;9.00;99.90;;;;;;5080938;27;39949;-57
2022/05/09 05:20:35;;;;;;;;;;;9.40;99.90;;;;;;5079927;27;36040;-57
2022/05/09 05:23:02;;;;;;;;;;;9.70;99.90;;;;;;5078292;27;36165;-58
2022/05/09 05:25:31;;;;;;;;;;;9.90;99.90;;;;;;5079720;27;38038;-57
2022/05/09 05:27:58;;;;;;;;;;;10.00;99.90;;;;;;5080333;27;40397;-57
2022/05/09 05:30:28;;;;;;;;;;;10.20;99.90;;;;;;5080770;27;37385;-57
2022/05/09 05:32:57;;;;;;;;;;;10.40;99.90;;;;;;5080934;27;35855;-58
2022/05/09 05:35:25;;;;;;;;;;;10.60;99.90;;;;;;5079909;27;36401;-57
2022/05/09 05:37:54;;;;;;;;;;;10.80;99.90;;;;;;5081124;27;36532;-58
2022/05/09 05:40:21;;;;;;;;;;;11.20;99.90;;;;;;5079126;27;38794;-58
2022/05/09 05:42:49;;;;;;;;;;;11.60;99.90;;;;;;5078712;27;36593;-58
2022/05/09 05:45:17;;;;;;;;;;;11.90;99.60;;;;;;5079447;27;37523;-57
2022/05/09 05:47:44;;;;;;;;;;;12.30;99.20;;;;;;5079497;27;38612;-57
2022/05/09 05:50:12;;;;;;;;;;;12.40;99.20;;;;;;5080361;27;36945;-57
2022/05/09 05:52:39;;;;;;;;;;;12.50;99.00;;;;;;5079777;27;38232;-57
2022/05/09 05:55:09;;;;;;;;;;;12.60;98.40;;;;;;5080195;27;37543;-57
2022/05/09 05:57:38;;;;;;;;;;;12.80;98.00;;;;;;5080011;27;37731;-57
2022/05/09 06:00:06;;;;;;;;;;;12.90;98.20;;;;;;5078412;27;37404;-57
2022/05/09 06:02:34;;;;;;;;;;;13.10;97.00;;;;;;5079658;27;37438;-57
2022/05/09 06:05:01;;;;;;;;;;;13.30;96.90;;;;;;5079681;27;37976;-57
2022/05/09 06:07:28;;;;;;;;;;;13.60;95.90;;;;;;5081552;27;38980;-57
2022/05/09 06:09:55;;;;;;;;;;;14.20;94.40;;;;;;5077533;27;38897;-57
2022/05/09 06:12:24;;;;;;;;;;;14.50;94.00;;;;;;5079884;27;35104;-57
2022/05/09 06:15:24;;;;;;;;;;;14.50;93.10;;;;;;5080105;27;36356;-57
2022/05/09 06:17:38;;;;;;;;;;;14.30;94.00;;;;;;5078909;27;39385;-57
2022/05/09 06:20:06;;;;;;;;;;;14.20;93.80;;;;;;5082298;27;36887;-58
2022/05/09 06:22:36;;;;;;;;;;;14.20;93.80;;;;;;5080599;27;36366;-57
2022/05/09 06:25:05;;;;;;;;;;;14.50;93.00;;;;;;5078195;27;36584;-57
2022/05/09 06:27:34;;;;;;;;;;;14.90;93.10;;;;;;5079010;27;40940;-57
2022/05/09 06:30:01;;;;;;;;;;;15.30;91.10;;;;;;5079825;27;37161;-57
2022/05/09 06:32:28;;;;;;;;;;;15.50;90.20;;;;;;5080933;27;36150;-57
2022/05/09 06:34:55;;;;;;;;;;;15.40;89.70;;;;;;5080005;27;38260;-57
2022/05/09 06:37:22;;;;;;;;;;;15.30;90.90;;;;;;5082003;27;37809;-57
2022/05/09 06:39:52;;;;;;;;;;;15.30;91.50;;;;;;5080945;27;39254;-57
2022/05/09 06:42:19;;;;;;;;;;;15.50;91.20;;;;;;5078389;27;35887;-57
2022/05/09 06:44:48;;;;;;;;;;;15.80;91.30;;;;;;5077924;27;38582;-57
2022/05/09 06:47:15;;;;;;;;;;;15.70;90.90;;;;;;5076539;27;38858;-57
2022/05/09 06:49:42;;;;;;;;;;;15.40;90.70;;;;;;5078654;27;37952;-57
2022/05/09 06:52:09;;;;;;;;;;;15.10;90.70;;;;;;5079131;27;37252;-57
2022/05/09 06:54:36;;;;;;;;;;;15.00;91.20;;;;;;5079976;27;37431;-57
2022/05/09 06:57:04;;;;;;;;;;;14.80;91.90;;;;;;5078965;27;39414;-57
2022/05/09 06:59:32;;;;;;;;;;;14.70;92.40;;;;;;5079340;27;37788;-57
2022/05/09 07:02:00;;;;;;;;;;;14.80;92.60;;;;;;5080240;27;36532;-57
2022/05/09 07:04:28;;;;;;;;;;;14.80;93.20;;;;;;5079496;27;36532;-57
2022/05/09 07:06:56;;;;;;;;;;;14.80;92.90;;;;;;5074502;27;38788;-57
2022/05/09 07:09:23;;;;;;;;;;;14.90;93.30;;;;;;5078237;27;37357;-57
2022/05/09 07:11:51;;;;;;;;;;;14.90;93.10;;;;;;5078661;27;36234;-57
2022/05/09 07:14:18;;;;;;;;;;;14.90;92.40;;;;;;5078265;27;37391;-57
2022/05/09 07:16:45;;;;;;;;;;;14.90;92.50;;;;;;5078075;27;38418;-57
2022/05/09 07:19:16;;;;;;;;;;;15.00;91.60;;;;;;5079248;27;40874;-57
2022/05/09 07:21:43;;;;;;;;;;;15.00;91.00;;;;;;5079399;27;37369;-57
2022/05/09 07:24:10;;;;;;;;;;;15.00;91.20;;;;;;5079405;27;37474;-57
2022/05/09 07:26:38;;;;;;;;;;;15.00;89.80;;;;;;5079803;27;37141;-57
2022/05/09 07:29:05;;;;;;;;;;;15.00;91.10;;;;;;5077115;27;37455;-57
2022/05/09 07:31:33;;;;;;;;;;;15.00;91.00;;;;;;5079810;27;35196;-57
2022/05/09 07:34:00;;;;;;;;;;;15.00;91.00;;;;;;5079352;27;37460;-57
2022/05/09 07:36:29;;;;;;;;;;;15.10;91.30;;;;;;5079015;27;38661;-57
2022/05/09 07:38:56;;;;;;;;;;;15.10;90.80;;;;;;5079731;27;39599;-57
2022/05/09 07:41:23;;;;;;;;;;;15.20;91.10;;;;;;5078361;27;35148;-57
2022/05/09 07:43:51;;;;;;;;;;;15.30;91.00;;;;;;5080070;27;37923;-57
2022/05/09 07:46:18;;;;;;;;;;;15.40;88.80;;;;;;5078787;27;37734;-57
2022/05/09 07:48:46;;;;;;;;;;;15.50;90.00;;;;;;5078454;27;37095;-57
2022/05/09 07:51:15;;;;;;;;;;;15.50;90.20;;;;;;5080021;27;39507;-57
2022/05/09 07:53:44;;;;;;;;;;;15.60;90.60;;;;;;5078967;27;36316;-57
2022/05/09 07:56:11;;;;;;;;;;;15.80;89.80;;;;;;5077438;27;38295;-57
2022/05/09 07:58:39;;;;;;;;;;;16.00;87.60;;;;;;5075666;27;38422;-57
2022/05/09 08:01:06;;;;;;;;;;;16.30;88.10;;;;;;5077081;27;36456;-57
2022/05/09 08:03:34;;;;;;;;;;;16.40;85.10;;;;;;5077587;27;37837;-57
2022/05/09 08:06:02;;;;;;;;;;;16.50;87.10;;;;;;5077517;27;38129;-57
2022/05/09 08:08:29;;;;;;;;;;;16.50;86.40;;;;;;5078357;27;37216;-58
2022/05/09 08:10:59;;;;;;;;;;;16.60;86.70;;;;;;5077827;27;36915;-57
2022/05/09 08:13:28;;;;;;;;;;;16.80;85.70;;;;;;5078264;27;38077;-57
2022/05/09 08:15:55;;;;;;;;;;;16.90;81.30;;;;;;5077472;27;38033;-57
2022/05/09 08:18:24;;;;;;;;;;;17.00;81.30;;;;;;5079361;27;38115;-57
2022/05/09 08:20:53;;;;;;;;;;;17.10;81.10;;;;;;5080139;27;37619;-58
2022/05/09 08:23:22;;;;;;;;;;;17.00;76.90;;;;;;5079619;27;37591;-57
2022/05/09 08:25:50;;;;;;;;;;;17.00;83.30;;;;;;5079438;27;38878;-57
2022/05/09 08:28:19;;;;;;;;;;;17.10;84.20;;;;;;5081431;27;36496;-57
2022/05/09 08:30:47;;;;;;;;;;;17.20;85.40;;;;;;5080316;27;36001;-58
2022/05/09 08:33:16;;;;;;;;;;;17.40;85.50;;;;;;5080121;27;36609;-57
2022/05/09 08:35:43;;;;;;;;;;;17.50;84.60;;;;;;5079139;27;38273;-57
2022/05/09 08:38:10;;;;;;;;;;;17.70;82.80;;;;;;5079034;27;37182;-57
2022/05/09 08:40:38;;;;;;;;;;;17.90;82.50;;;;;;5079331;27;37570;-58
2022/05/09 08:43:12;;;;;;;;;;;18.00;77.20;;;;;;5080729;27;40464;-58
2022/05/09 08:45:46;;;;;;;;;;;18.10;70.30;;;;;;5081015;27;38220;-57
2022/05/09 08:48:23;;;;;;;;;;;18.10;73.50;;;;;;5079314;27;36081;-58
2022/05/09 08:50:57;;;;;;;;;;;18.20;78.50;;;;;;5081697;27;36351;-57
2022/05/09 08:53:26;;;;;;;;;;;18.40;76.70;;;;;;5079384;27;36482;-58
2022/05/09 08:55:55;;;;;;;;;;;18.60;72.90;;;;;;5079398;27;37175;-58
2022/05/09 08:58:28;;;;;;;;;;;18.70;72.20;;;;;;5080346;27;37505;-57
2022/05/09 09:00:59;;;;;;;;;;;18.80;71.40;;;;;;5080421;27;37399;-57
2022/05/09 09:03:28;;;;;;;;;;;18.90;66.00;;;;;;5080089;27;37521;-58
2022/05/09 09:05:56;;;;;;;;;;;19.00;64.60;;;;;;5081475;27;36933;-57
2022/05/09 09:08:28;;;;;;;;;;;19.00;63.20;;;;;;5079715;27;37339;-58
2022/05/09 09:11:02;;;;;;;;;;;19.10;62.00;;;;;;5079346;27;36297;-57
2022/05/09 09:13:44;;;;;;;;;;;19.30;61.60;;;;;;5079687;27;38910;-58
2022/05/09 09:16:18;;;;;;;;;;;19.50;62.10;;;;;;5079232;27;37699;-57
2022/05/09 09:18:54;;;;;;;;;;;19.60;58.90;;;;;;5081086;27;37603;-57
2022/05/09 09:21:24;;;;;;;;;;;19.80;60.90;;;;;;5080884;27;36303;-58
2022/05/09 09:23:58;;;;;;;;;;;19.90;56.00;;;;;;5079147;27;38089;-57
2022/05/09 09:26:30;;;;;;;;;;;19.90;53.70;;;;;;5078611;27;39117;-58
2022/05/09 09:29:00;;;;;;;;;;;19.90;53.30;;;;;;5078011;27;37560;-57
2022/05/09 09:31:31;;;;;;;;;;;20.10;54.80;;;;;;5078545;27;37791;-57
2022/05/09 09:34:00;;;;;;;;;;;20.20;49.80;;;;;;5077610;27;36528;-58
2022/05/09 09:36:34;;;;;;;;;;;20.40;53.40;;;;;;5079989;27;39387;-57
2022/05/09 09:39:07;;;;;;;;;;;20.50;51.10;;;;;;5078863;27;36157;-57
2022/05/09 09:41:35;;;;;;;;;;;20.60;46.60;;;;;;5080074;27;36625;-58
2022/05/09 09:44:06;;;;;;;;;;;20.70;41.70;;;;;;5077665;27;38774;-57
2022/05/09 09:46:34;;;;;;;;;;;20.70;41.90;;;;;;5079956;27;37837;-57
2022/05/09 09:49:04;;;;;;;;;;;20.70;43.20;;;;;;5079443;27;38206;-58
2022/05/09 09:51:31;;;;;;;;;;;20.70;44.20;;;;;;5080319;27;36887;-57
2022/05/09 09:54:01;;;;;;;;;;;20.70;45.80;;;;;;5080270;27;36951;-58
2022/05/09 09:56:31;;;;;;;;;;;20.90;46.80;;;;;;5080558;27;40159;-58
2022/05/09 09:59:00;;;;;;;;;;;20.90;46.90;;;;;;5078248;27;36985;-57
2022/05/09 10:01:30;;;;;;;;;;;21.00;45.90;;;;;;5078400;27;36212;-58
2022/05/09 10:04:09;;;;;;;;;;;21.10;42.00;;;;;;5079432;27;37993;-58
2022/05/09 10:06:55;;;;;;;;;;;21.10;42.10;;;;;;5078554;27;38455;-58
2022/05/09 10:09:22;;;;;;;;;;;21.20;42.10;;;;;;5079447;27;36863;-58
2022/05/09 10:11:51;;;;;;;;;;;21.30;40.80;;;;;;5079359;27;37053;-58
2022/05/09 10:14:31;;;;;;;;;;;21.30;42.40;;;;;;5078142;27;38885;-58
2022/05/09 10:17:12;;;;;;;;;;;21.30;41.20;;;;;;5078310;27;40135;-58
2022/05/09 10:19:41;;;;;;;;;;;21.30;42.90;;;;;;5078997;27;36610;-58
2022/05/09 10:24:57;;;;;;;;;;;21.40;43.30;;;;;;5076650;27;38115;-58
2022/05/09 10:27:29;;;;;;;;;;;21.40;44.10;;;;;;5076545;27;38669;-57
2022/05/09 10:29:57;;;;;;;;;;;21.50;45.40;;;;;;5078987;27;37405;-58
2022/05/09 10:32:26;;;;;;;;;;;21.50;43.00;;;;;;5078309;27;35393;-58
2022/05/09 10:34:57;;;;;;;;;;;21.50;42.40;;;;;;5078366;27;38627;-56
2022/05/09 10:37:29;;;;;;;;;;;21.50;43.50;;;;;;5076870;27;39267;-56
2022/05/09 10:39:59;;;;;;;;;;;21.60;42.30;;;;;;5076732;27;38268;-55
2022/05/09 10:42:33;;;;;;;;;;;21.60;43.60;;;;;;5076668;27;36664;-56
2022/05/09 10:45:06;;;;;;;;;;;21.70;41.40;;;;;;5077499;27;38627;-56
2022/05/09 10:47:37;;;;;;;;;;;21.70;41.90;;;;;;5077691;27;38626;-56
2022/05/09 10:50:10;;;;;;;;;;;21.80;41.10;;;;;;5078699;27;39255;-55
2022/05/09 10:52:41;;;;;;;;;;;21.80;42.00;;;;;;5077571;27;36273;-55
2022/05/09 10:55:14;;;;;;;;;;;21.70;39.60;;;;;;5077232;27;37821;-55
2022/05/09 10:57:42;;;;;;;;;;;21.60;41.60;;;;;;5077784;27;38049;-55
2022/05/09 11:00:11;;;;;;;;;;;21.60;44.60;;;;;;5076501;27;38134;-55
2022/05/09 11:02:40;;;;;;;;;;;21.70;43.20;;;;;;5073962;27;37909;-58
2022/05/09 11:05:09;;;;;;;;;;;21.80;44.90;;;;;;5075112;27;38730;-58
2022/05/09 11:07:39;;;;;;;;;;;21.80;43.10;;;;;;5074815;27;36638;-58
2022/05/09 11:10:10;;;;;;;;;;;21.90;42.90;;;;;;5075042;27;40462;-58
2022/05/09 11:12:41;;;;;;;;;;;22.00;42.10;;;;;;5075563;27;38857;-58
2022/05/09 11:15:14;;;;;;;;;;;22.00;40.20;;;;;;5076486;27;36379;-57
2022/05/09 11:17:55;;;;;;;;;;;22.10;42.20;;;;;;5075779;27;40330;-58
2022/05/09 11:20:28;;;;;;;;;;;22.00;42.50;;;;;;5076422;27;39533;-58
2022/05/09 11:22:59;;;;;;;;;;;22.10;41.80;;;;;;5076562;27;37010;-58
2022/05/09 11:25:33;;;;;;;;;;;22.10;41.30;;;;;;5077216;27;38823;-58
2022/05/09 11:28:09;;;;;;;;;;;22.10;39.60;;;;;;5077386;27;37535;-58
2022/05/09 11:30:38;;;;;;;;;;;22.10;43.50;;;;;;5074885;27;39931;-58
2022/05/09 11:33:23;;;;;;;;;;;22.10;42.10;;;;;;5075063;27;36285;-58
2022/05/09 11:35:54;;;;;;;;;;;22.10;39.90;;;;;;5075917;27;39370;-58
2022/05/09 11:38:35;;;;;;;;;;;22.10;40.30;;;;;;5076857;27;37644;-58
2022/05/09 11:41:11;;;;;;;;;;;22.10;42.70;;;;;;5074263;27;37146;-58
2022/05/09 11:43:46;;;;;;;;;;;22.20;42.00;;;;;;5076505;27;36985;-57
2022/05/09 11:46:22;;;;;;;;;;;22.30;41.30;;;;;;5076521;27;38884;-58
2022/05/09 11:48:57;;;;;;;;;;;22.20;42.30;;;;;;5078143;27;37887;-57
2022/05/09 11:51:29;;;;;;;;;;;22.00;41.90;;;;;;5078652;27;37177;-57
2022/05/09 11:53:58;;;;;;;;;;;21.90;42.60;;;;;;5079728;27;36222;-58
2022/05/09 11:56:26;;;;;;;;;;;21.70;42.00;;;;;;5081744;27;37654;-58
2022/05/09 11:58:53;;;;;;;;;;;21.60;40.50;;;;;;5081255;27;37942;-58
2022/05/09 12:01:35;;;;;;;;;;;21.50;41.80;;;;;;5080579;27;36148;-58
2022/05/09 12:04:02;;;;;;;;;;;21.40;42.40;;;;;;5081256;27;37381;-56
2022/05/09 12:06:35;;;;;;;;;;;21.50;43.30;;;;;;5081443;27;36408;-56
2022/05/09 12:09:08;;;;;;;;;;;21.40;43.30;;;;;;5079064;27;37884;-56
2022/05/09 12:11:44;;;;;;;;;;;21.40;42.60;;;;;;5081093;27;37201;-56
2022/05/09 12:14:11;;;;;;;;;;;21.30;40.70;;;;;;5079631;27;36925;-56
2022/05/09 12:16:42;;;;;;;;;;;21.30;43.10;;;;;;5079287;27;36545;-56
2022/05/09 12:19:13;;;;;;;;;;;21.30;44.30;;;;;;5081323;27;38351;-56
2022/05/09 12:21:42;;;;;;;;;;;21.30;44.40;;;;;;5079701;27;37290;-56
2022/05/09 12:24:11;;;;;;;;;;;21.20;42.80;;;;;;5080355;27;39892;-56
2022/05/09 12:26:39;;;;;;;;;;;21.20;44.10;;;;;;5080693;27;37105;-56
2022/05/09 12:29:08;;;;;;;;;;;21.20;46.00;;;;;;5080044;27;37790;-56
2022/05/09 12:31:40;;;;;;;;;;;21.30;44.80;;;;;;5080134;27;39061;-56
2022/05/09 12:34:14;;;;;;;;;;;21.20;42.90;;;;;;5077148;27;37977;-56
2022/05/09 12:36:44;;;;;;;;;;;21.30;41.80;;;;;;5080423;27;37969;-56
2022/05/09 12:39:14;;;;;;;;;;;21.20;42.40;;;;;;5079862;27;38956;-56
2022/05/09 12:41:46;;;;;;;;;;;21.20;44.10;;;;;;5075642;27;39091;-58
2022/05/09 12:44:17;;;;;;;;;;;21.20;44.70;;;;;;5077683;27;36604;-58
2022/05/09 12:46:45;;;;;;;;;;;21.20;46.00;;;;;;5079916;27;36757;-57
2022/05/09 12:49:14;;;;;;;;;;;21.20;42.80;;;;;;5080730;27;37695;-58
2022/05/09 12:51:43;;;;;;;;;;;21.20;45.20;;;;;;5081267;27;38392;-58
2022/05/09 12:54:12;;;;;;;;;;;21.20;45.80;;;;;;5079919;27;37201;-57
2022/05/09 12:56:46;;;;;;;;;;;21.30;46.10;;;;;;5080407;27;39939;-58
2022/05/09 12:59:16;;;;;;;;;;;21.30;45.70;;;;;;5079359;27;38985;-58
2022/05/09 13:01:44;;;;;;;;;;;21.40;45.80;;;;;;5078870;27;38080;-58
2022/05/09 13:04:19;;;;;;;;;;;21.40;45.20;;;;;;5079439;27;36155;-58
2022/05/09 13:06:47;;;;;;;;;;;21.40;44.20;;;;;;5080124;27;39010;-58
2022/05/09 13:09:18;;;;;;;;;;;21.30;45.00;;;;;;5078036;27;37884;-58
2022/05/09 13:11:48;;;;;;;;;;;21.30;44.50;;;;;;5079643;27;35853;-58
2022/05/09 13:14:18;;;;;;;;;;;21.30;45.40;;;;;;5078177;27;36205;-58
2022/05/09 13:16:52;;;;;;;;;;;21.40;45.20;;;;;;5078539;27;38425;-58
2022/05/09 13:19:21;;;;;;;;;;;21.40;43.70;;;;;;5078711;27;37627;-58
2022/05/09 13:21:49;;;;;;;;;;;21.40;42.10;;;;;;5077817;27;37956;-58
2022/05/09 13:24:20;;;;;;;;;;;21.30;42.20;;;;;;5080669;27;35172;-58
2022/05/09 13:26:52;;;;;;;;;;;21.20;43.60;;;;;;5078436;27;36556;-58
2022/05/09 13:29:23;;;;;;;;;;;21.20;44.00;;;;;;5079035;27;37789;-57
2022/05/09 13:31:52;;;;;;;;;;;21.10;42.30;;;;;;5079778;27;37252;-57
2022/05/09 13:34:20;;;;;;;;;;;21.00;43.10;;;;;;5081587;27;36630;-58
2022/05/09 13:36:47;;;;;;;;;;;21.00;43.90;;;;;;5080437;27;39325;-58
2022/05/09 13:39:23;;;;;;;;;;;21.00;44.90;;;;;;5079305;27;37846;-58
2022/05/09 13:41:50;;;;;;;;;;;21.00;46.00;;;;;;5078781;27;36763;-58
2022/05/09 13:44:20;;;;;;;;;;;21.10;45.70;;;;;;5079037;27;37737;-58
2022/05/09 13:46:47;;;;;;;;;;;21.10;46.30;;;;;;5079425;27;38696;-58
2022/05/09 13:49:16;;;;;;;;;;;21.10;45.80;;;;;;5078033;27;38082;-58
2022/05/09 13:51:51;;;;;;;;;;;21.10;46.60;;;;;;5079449;27;37632;-56
2022/05/09 13:54:21;;;;;;;;;;;21.10;46.50;;;;;;5078370;27;37457;-56
2022/05/09 13:56:49;;;;;;;;;;;21.10;46.40;;;;;;5079447;27;36491;-56
2022/05/09 13:59:17;;;;;;;;;;;21.10;45.60;;;;;;5078487;27;37067;-56
2022/05/09 14:01:45;;;;;;;;;;;21.00;45.60;;;;;;5079580;27;35881;-56
2022/05/09 14:04:14;;;;;;;;;;;21.00;44.30;;;;;;5070001;27;35174;-56
2022/05/09 14:06:44;;;;;;;;;;;21.00;45.80;;;;;;5071131;27;36534;-56
2022/05/09 14:09:14;;;;;;;;;;;21.00;46.40;;;;;;5077619;27;38242;-56
2022/05/09 14:11:52;;;;;;;;;;;21.00;45.50;;;;;;5076903;27;36960;-56
2022/05/09 14:14:33;;;;;;;;;;;21.00;45.90;;;;;;5077598;27;36222;-56
2022/05/09 14:17:02;;;;;;;;;;;21.00;44.40;;;;;;5076389;27;37604;-56
2022/05/09 14:19:30;;;;;;;;;;;21.00;45.40;;;;;;5075790;27;37307;-56
2022/05/09 14:22:03;;;;;;;;;;;21.00;44.60;;;;;;5076225;27;35997;-56
2022/05/09 14:24:31;;;;;;;;;;;20.90;45.70;;;;;;5079107;27;36705;-56
2022/05/09 14:29:51;;;;;;;;;;;20.90;45.80;;;;;;5076141;27;39466;-56
2022/05/09 14:32:33;;;;;;;;;;;20.90;46.20;;;;;;5079099;27;38600;-56
2022/05/09 14:35:00;;;;;;;;;;;20.90;45.40;;;;;;5070321;27;36731;-56
2022/05/09 14:37:30;;;;;;;;;;;20.80;46.10;;;;;;5077945;27;38115;-56
2022/05/09 14:40:01;;;;;;;;;;;20.80;46.10;;;;;;5078492;27;39089;-56
2022/05/09 14:42:32;;;;;;;;;;;20.80;46.00;;;;;;5077011;27;37256;-56
2022/05/09 14:45:18;;;;;;;;;;;20.80;45.60;;;;;;5078375;27;35222;-56